sensor_id;sensor_type;location;lat;lon;timestamp;temperature;humidity
10968;DHT22;5536;49.602;10.980;2022-11-02T00:00:20;10.10;99.90
10968;DHT22;5536;49.602;10.980;2022-11-02T00:02:47;10.20;99.90
10968;DHT22;5536;49.602;10.980;2022-11-02T00:05:15;10.20;99.90
10968;DHT22;5536;49.602;10.980;2022-11-02T00:07:48;10.30;99.90
10968;DHT22;5536;49.602;10.980;2022-11-02T00:10:15;10.40;99.90
10968;DHT22;5536;49.602;10.980;2022-11-02T00:12:42;10.20;99.90
10968;DHT22;5536;49.602;10.980;2022-11-02T00:15:10;10.30;99.90
10968;DHT22;5536;49.602;10.980;2022-11-02T00:17:37;10.20;99.90
10968;DHT22;5536;49.602;10.980;2022-11-02T00:20:06;10.20;99.90
10968;DHT22;5536;49.602;10.980;2022-11-02T00:22:35;10.30;99.90
10968;DHT22;5536;49.602;10.980;2022-11-02T00:25:04;10.30;99.90
10968;DHT22;5536;49.602;10.980;2022-11-02T00:27:32;10.20;99.90
10968;DHT22;5536;49.602;10.980;2022-11-02T00:30:00;10.20;99.90
10968;DHT22;5536;49.602;10.980;2022-11-02T00:32:28;10.30;99.90
10968;DHT22;5536;49.602;10.980;2022-11-02T00:34:56;10.40;99.90
10968;DHT22;5536;49.602;10.980;2022-11-02T00:37:23;10.20;99.90
10968;DHT22;5536;49.602;10.980;2022-11-02T00:39:51;10.20;99.90
10968;DHT22;5536;49.602;10.980;2022-11-02T00:42:18;10.30;99.90
10968;DHT22;5536;49.602;10.980;2022-11-02T00:44:45;10.10;99.90
10968;DHT22;5536;49.602;10.980;2022-11-02T00:47:12;10.10;99.90
10968;DHT22;5536;49.602;10.980;2022-11-02T00:49:39;10.00;99.90
10968;DHT22;5536;49.602;10.980;2022-11-02T00:52:06;10.00;99.90
10968;DHT22;5536;49.602;10.980;2022-11-02T00:54:33;9.90;99.90
10968;DHT22;5536;49.602;10.980;2022-11-02T00:57:01;9.90;99.90
10968;DHT22;5536;49.602;10.980;2022-11-02T00:59:28;10.00;99.90
10968;DHT22;5536;49.602;10.980;2022-11-02T01:01:55;9.90;99.90
10968;DHT22;5536;49.602;10.980;2022-11-02T01:04:22;10.00;99.90
10968;DHT22;5536;49.602;10.980;2022-11-02T01:06:49;10.10;99.90
10968;DHT22;5536;49.602;10.980;2022-11-02T01:09:16;10.10;99.90
10968;DHT22;5536;49.602;10.980;2022-11-02T01:11:43;10.10;99.90
10968;DHT22;5536;49.602;10.980;2022-11-02T01:14:11;10.10;99.90
10968;DHT22;5536;49.602;10.980;2022-11-02T01:16:39;10.10;99.90
10968;DHT22;5536;49.602;10.980;2022-11-02T01:19:07;10.10;99.90
10968;DHT22;5536;49.602;10.980;2022-11-02T01:21:33;10.20;99.90
10968;DHT22;5536;49.602;10.980;2022-11-02T01:24:00;10.20;99.90
10968;DHT22;5536;49.602;10.980;2022-11-02T01:26:27;10.00;99.90
10968;DHT22;5536;49.602;10.980;2022-11-02T01:28:55;10.00;99.90
10968;DHT22;5536;49.602;10.980;2022-11-02T01:31:23;10.00;99.90
10968;DHT22;5536;49.602;10.980;2022-11-02T01:33:50;9.90;99.90
10968;DHT22;5536;49.602;10.980;2022-11-02T01:36:18;10.00;99.90
10968;DHT22;5536;49.602;10.980;2022-11-02T01:38:46;10.00;99.90
10968;DHT22;5536;49.602;10.980;2022-11-02T01:41:14;10.00;99.90
10968;DHT22;5536;49.602;10.980;2022-11-02T01:43:42;10.10;99.90
10968;DHT22;5536;49.602;10.980;2022-11-02T01:46:16;10.10;99.90
10968;DHT22;5536;49.602;10.980;2022-11-02T01:48:48;10.10;99.90
10968;DHT22;5536;49.602;10.980;2022-11-02T01:51:19;10.00;99.90
10968;DHT22;5536;49.602;10.980;2022-11-02T01:53:49;10.00;99.90
10968;DHT22;5536;49.602;10.980;2022-11-02T01:56:19;9.90;99.90
10968;DHT22;5536;49.602;10.980;2022-11-02T01:58:52;9.80;99.90
10968;DHT22;5536;49.602;10.980;2022-11-02T02:01:20;9.80;99.90
10968;DHT22;5536;49.602;10.980;2022-11-02T02:03:50;9.80;99.90
10968;DHT22;5536;49.602;10.980;2022-11-02T02:06:18;9.60;99.90
10968;DHT22;5536;49.602;10.980;2022-11-02T02:08:47;9.60;99.90
10968;DHT22;5536;49.602;10.980;2022-11-02T02:11:27;9.50;99.90
10968;DHT22;5536;49.602;10.980;2022-11-02T02:13:55;9.50;99.90
10968;DHT22;5536;49.602;10.980;2022-11-02T02:16:32;9.40;99.90
10968;DHT22;5536;49.602;10.980;2022-11-02T02:19:09;9.40;99.90
10968;DHT22;5536;49.602;10.980;2022-11-02T02:21:47;9.30;99.90
10968;DHT22;5536;49.602;10.980;2022-11-02T02:24:31;9.30;99.90
10968;DHT22;5536;49.602;10.980;2022-11-02T02:27:11;9.30;99.90
10968;DHT22;5536;49.602;10.980;2022-11-02T02:29:50;9.30;99.90
10968;DHT22;5536;49.602;10.980;2022-11-02T02:32:23;9.20;99.90
10968;DHT22;5536;49.602;10.980;2022-11-02T02:34:53;9.20;99.90
10968;DHT22;5536;49.602;10.980;2022-11-02T02:37:25;9.10;99.90
10968;DHT22;5536;49.602;10.980;2022-11-02T02:39:59;9.10;99.90
10968;DHT22;5536;49.602;10.980;2022-11-02T02:42:30;9.00;99.90
10968;DHT22;5536;49.602;10.980;2022-11-02T02:45:10;9.00;99.90
10968;DHT22;5536;49.602;10.980;2022-11-02T02:47:43;8.90;99.90
10968;DHT22;5536;49.602;10.980;2022-11-02T02:50:13;8.90;99.90
10968;DHT22;5536;49.602;10.980;2022-11-02T02:52:43;8.90;99.90
10968;DHT22;5536;49.602;10.980;2022-11-02T02:55:14;8.80;99.90
10968;DHT22;5536;49.602;10.980;2022-11-02T02:57:44;8.80;99.90
10968;DHT22;5536;49.602;10.980;2022-11-02T03:00:15;8.80;99.90
10968;DHT22;5536;49.602;10.980;2022-11-02T03:02:44;8.80;99.90
10968;DHT22;5536;49.602;10.980;2022-11-02T03:05:27;8.80;99.90
10968;DHT22;5536;49.602;10.980;2022-11-02T03:07:56;8.80;99.90
10968;DHT22;5536;49.602;10.980;2022-11-02T03:10:29;8.80;99.90
10968;DHT22;5536;49.602;10.980;2022-11-02T03:13:08;8.70;99.90
10968;DHT22;5536;49.602;10.980;2022-11-02T03:15:40;8.70;99.90
10968;DHT22;5536;49.602;10.980;2022-11-02T03:18:15;8.80;99.90
10968;DHT22;5536;49.602;10.980;2022-11-02T03:20:56;8.80;99.90
10968;DHT22;5536;49.602;10.980;2022-11-02T03:23:28;8.70;99.90
10968;DHT22;5536;49.602;10.980;2022-11-02T03:26:01;8.70;99.90
10968;DHT22;5536;49.602;10.980;2022-11-02T03:28:41;8.70;99.90
10968;DHT22;5536;49.602;10.980;2022-11-02T03:31:14;8.60;99.90
10968;DHT22;5536;49.602;10.980;2022-11-02T03:33:45;8.60;99.90
10968;DHT22;5536;49.602;10.980;2022-11-02T03:36:17;8.70;99.90
10968;DHT22;5536;49.602;10.980;2022-11-02T03:38:47;8.60;99.90
10968;DHT22;5536;49.602;10.980;2022-11-02T03:41:18;8.50;99.90
10968;DHT22;5536;49.602;10.980;2022-11-02T03:43:48;8.60;99.90
10968;DHT22;5536;49.602;10.980;2022-11-02T03:46:17;8.50;99.90
10968;DHT22;5536;49.602;10.980;2022-11-02T03:48:47;8.60;99.90
10968;DHT22;5536;49.602;10.980;2022-11-02T03:51:18;8.60;99.90
10968;DHT22;5536;49.602;10.980;2022-11-02T03:53:49;8.70;99.90
10968;DHT22;5536;49.602;10.980;2022-11-02T03:56:21;8.80;99.90
10968;DHT22;5536;49.602;10.980;2022-11-02T03:58:49;8.90;99.90
10968;DHT22;5536;49.602;10.980;2022-11-02T04:01:19;8.80;99.90
10968;DHT22;5536;49.602;10.980;2022-11-02T04:03:46;8.80;99.90
10968;DHT22;5536;49.602;10.980;2022-11-02T04:06:14;8.90;99.90
10968;DHT22;5536;49.602;10.980;2022-11-02T04:08:42;9.00;99.90
10968;DHT22;5536;49.602;10.980;2022-11-02T04:11:10;8.90;99.90
10968;DHT22;5536;49.602;10.980;2022-11-02T04:13:54;8.90;99.90
10968;DHT22;5536;49.602;10.980;2022-11-02T04:16:40;9.00;99.90
10968;DHT22;5536;49.602;10.980;2022-11-02T04:19:08;9.00;99.90
10968;DHT22;5536;49.602;10.980;2022-11-02T04:21:52;9.00;99.90
10968;DHT22;5536;49.602;10.980;2022-11-02T04:24:37;9.00;99.90
10968;DHT22;5536;49.602;10.980;2022-11-02T04:27:22;9.00;99.90
10968;DHT22;5536;49.602;10.980;2022-11-02T04:29:49;8.90;99.90
10968;DHT22;5536;49.602;10.980;2022-11-02T04:32:17;8.90;99.90
10968;DHT22;5536;49.602;10.980;2022-11-02T04:35:06;8.90;99.90
10968;DHT22;5536;49.602;10.980;2022-11-02T04:37:37;8.90;99.90
10968;DHT22;5536;49.602;10.980;2022-11-02T04:40:22;8.80;99.90
10968;DHT22;5536;49.602;10.980;2022-11-02T04:42:49;8.90;99.90
10968;DHT22;5536;49.602;10.980;2022-11-02T04:45:16;8.90;99.90
10968;DHT22;5536;49.602;10.980;2022-11-02T04:47:44;8.80;99.90
10968;DHT22;5536;49.602;10.980;2022-11-02T04:50:11;8.90;99.90
10968;DHT22;5536;49.602;10.980;2022-11-02T04:52:38;8.80;99.90
10968;DHT22;5536;49.602;10.980;2022-11-02T04:55:06;8.90;99.90
10968;DHT22;5536;49.602;10.980;2022-11-02T04:57:33;8.90;99.90
10968;DHT22;5536;49.602;10.980;2022-11-02T05:00:00;8.90;99.90
10968;DHT22;5536;49.602;10.980;2022-11-02T05:02:27;8.80;99.90
10968;DHT22;5536;49.602;10.980;2022-11-02T05:04:56;8.80;99.90
10968;DHT22;5536;49.602;10.980;2022-11-02T05:07:23;8.80;99.90
10968;DHT22;5536;49.602;10.980;2022-11-02T05:09:50;8.80;99.90
10968;DHT22;5536;49.602;10.980;2022-11-02T05:12:17;8.70;99.90
10968;DHT22;5536;49.602;10.980;2022-11-02T05:14:44;8.60;99.90
10968;DHT22;5536;49.602;10.980;2022-11-02T05:17:10;8.60;99.90
10968;DHT22;5536;49.602;10.980;2022-11-02T05:19:40;8.50;99.90
10968;DHT22;5536;49.602;10.980;2022-11-02T05:22:09;8.50;99.90
10968;DHT22;5536;49.602;10.980;2022-11-02T05:24:36;8.50;99.90
10968;DHT22;5536;49.602;10.980;2022-11-02T05:27:03;8.50;99.90
10968;DHT22;5536;49.602;10.980;2022-11-02T05:29:30;8.50;99.90
10968;DHT22;5536;49.602;10.980;2022-11-02T05:31:57;8.50;99.90
10968;DHT22;5536;49.602;10.980;2022-11-02T05:34:24;8.50;99.90
10968;DHT22;5536;49.602;10.980;2022-11-02T05:36:51;8.50;99.90
10968;DHT22;5536;49.602;10.980;2022-11-02T05:39:19;8.40;99.90
10968;DHT22;5536;49.602;10.980;2022-11-02T05:41:46;8.40;99.90
10968;DHT22;5536;49.602;10.980;2022-11-02T05:44:13;8.30;99.90
10968;DHT22;5536;49.602;10.980;2022-11-02T05:46:42;8.30;99.90
10968;DHT22;5536;49.602;10.980;2022-11-02T05:49:09;8.20;99.90
10968;DHT22;5536;49.602;10.980;2022-11-02T05:51:36;8.30;99.90
10968;DHT22;5536;49.602;10.980;2022-11-02T05:54:03;8.20;99.90
10968;DHT22;5536;49.602;10.980;2022-11-02T05:56:31;8.20;99.90
10968;DHT22;5536;49.602;10.980;2022-11-02T05:58:58;8.20;99.90
10968;DHT22;5536;49.602;10.980;2022-11-02T06:01:25;8.20;99.90
10968;DHT22;5536;49.602;10.980;2022-11-02T06:03:52;8.20;99.90
10968;DHT22;5536;49.602;10.980;2022-11-02T06:06:19;8.20;99.90
10968;DHT22;5536;49.602;10.980;2022-11-02T06:08:46;8.10;99.90
10968;DHT22;5536;49.602;10.980;2022-11-02T06:11:13;8.20;99.90
10968;DHT22;5536;49.602;10.980;2022-11-02T06:13:42;8.20;99.90
10968;DHT22;5536;49.602;10.980;2022-11-02T06:16:10;8.10;99.90
10968;DHT22;5536;49.602;10.980;2022-11-02T06:18:40;8.20;99.90
10968;DHT22;5536;49.602;10.980;2022-11-02T06:21:07;8.10;99.90
10968;DHT22;5536;49.602;10.980;2022-11-02T06:23:35;8.10;99.90
10968;DHT22;5536;49.602;10.980;2022-11-02T06:26:02;8.00;99.90
10968;DHT22;5536;49.602;10.980;2022-11-02T06:28:30;8.10;99.90
10968;DHT22;5536;49.602;10.980;2022-11-02T06:30:58;8.00;99.90
10968;DHT22;5536;49.602;10.980;2022-11-02T06:33:25;8.10;99.90
10968;DHT22;5536;49.602;10.980;2022-11-02T06:35:53;8.20;99.90
10968;DHT22;5536;49.602;10.980;2022-11-02T06:38:21;8.20;99.90
10968;DHT22;5536;49.602;10.980;2022-11-02T06:40:55;8.20;99.90
10968;DHT22;5536;49.602;10.980;2022-11-02T06:43:23;8.20;99.90
10968;DHT22;5536;49.602;10.980;2022-11-02T06:45:53;8.30;99.90
10968;DHT22;5536;49.602;10.980;2022-11-02T06:48:22;8.40;99.90
10968;DHT22;5536;49.602;10.980;2022-11-02T06:50:49;8.40;99.90
10968;DHT22;5536;49.602;10.980;2022-11-02T06:53:16;8.40;99.90
10968;DHT22;5536;49.602;10.980;2022-11-02T06:55:44;8.40;99.90
10968;DHT22;5536;49.602;10.980;2022-11-02T06:58:11;8.50;99.90
10968;DHT22;5536;49.602;10.980;2022-11-02T07:00:37;8.60;99.90
10968;DHT22;5536;49.602;10.980;2022-11-02T07:03:06;8.60;99.90
10968;DHT22;5536;49.602;10.980;2022-11-02T07:05:36;8.60;99.90
10968;DHT22;5536;49.602;10.980;2022-11-02T07:08:04;8.70;99.90
10968;DHT22;5536;49.602;10.980;2022-11-02T07:10:31;8.70;99.90
10968;DHT22;5536;49.602;10.980;2022-11-02T07:12:59;8.80;99.90
10968;DHT22;5536;49.602;10.980;2022-11-02T07:15:27;8.80;99.90
10968;DHT22;5536;49.602;10.980;2022-11-02T07:17:54;8.80;99.90
10968;DHT22;5536;49.602;10.980;2022-11-02T07:20:21;8.90;99.90
10968;DHT22;5536;49.602;10.980;2022-11-02T07:22:53;9.00;99.90
10968;DHT22;5536;49.602;10.980;2022-11-02T07:25:20;9.00;99.90
10968;DHT22;5536;49.602;10.980;2022-11-02T07:27:47;9.10;99.90
10968;DHT22;5536;49.602;10.980;2022-11-02T07:30:14;9.10;99.90
10968;DHT22;5536;49.602;10.980;2022-11-02T07:32:42;9.20;99.90
10968;DHT22;5536;49.602;10.980;2022-11-02T07:35:11;9.30;99.90
10968;DHT22;5536;49.602;10.980;2022-11-02T07:37:38;9.40;99.90
10968;DHT22;5536;49.602;10.980;2022-11-02T07:40:09;9.30;99.90
10968;DHT22;5536;49.602;10.980;2022-11-02T07:42:42;9.40;99.90
10968;DHT22;5536;49.602;10.980;2022-11-02T07:45:10;9.50;99.90
10968;DHT22;5536;49.602;10.980;2022-11-02T07:47:41;9.60;99.90
10968;DHT22;5536;49.602;10.980;2022-11-02T07:50:09;9.80;99.90
10968;DHT22;5536;49.602;10.980;2022-11-02T07:52:42;10.00;99.90
10968;DHT22;5536;49.602;10.980;2022-11-02T07:55:11;10.10;99.90
10968;DHT22;5536;49.602;10.980;2022-11-02T07:57:38;10.30;99.90
10968;DHT22;5536;49.602;10.980;2022-11-02T08:00:06;10.40;99.90
10968;DHT22;5536;49.602;10.980;2022-11-02T08:02:35;10.50;99.90
10968;DHT22;5536;49.602;10.980;2022-11-02T08:05:02;10.60;99.90
10968;DHT22;5536;49.602;10.980;2022-11-02T08:07:29;10.70;99.90
10968;DHT22;5536;49.602;10.980;2022-11-02T08:09:56;10.70;99.90
10968;DHT22;5536;49.602;10.980;2022-11-02T08:12:25;10.80;99.90
10968;DHT22;5536;49.602;10.980;2022-11-02T08:14:52;11.00;99.90
10968;DHT22;5536;49.602;10.980;2022-11-02T08:17:19;11.10;99.90
10968;DHT22;5536;49.602;10.980;2022-11-02T08:19:47;11.20;99.90
10968;DHT22;5536;49.602;10.980;2022-11-02T08:22:14;11.30;99.90
10968;DHT22;5536;49.602;10.980;2022-11-02T08:24:41;11.30;99.90
10968;DHT22;5536;49.602;10.980;2022-11-02T08:27:08;11.40;99.90
10968;DHT22;5536;49.602;10.980;2022-11-02T08:29:36;11.50;99.90
10968;DHT22;5536;49.602;10.980;2022-11-02T08:32:04;11.60;99.90
10968;DHT22;5536;49.602;10.980;2022-11-02T08:34:31;11.60;99.90
10968;DHT22;5536;49.602;10.980;2022-11-02T08:36:57;11.60;99.90
10968;DHT22;5536;49.602;10.980;2022-11-02T08:39:24;11.60;99.90
10968;DHT22;5536;49.602;10.980;2022-11-02T08:41:52;11.60;99.90
10968;DHT22;5536;49.602;10.980;2022-11-02T08:44:18;11.60;99.90
10968;DHT22;5536;49.602;10.980;2022-11-02T08:46:47;11.60;99.90
10968;DHT22;5536;49.602;10.980;2022-11-02T08:49:14;11.70;99.90
10968;DHT22;5536;49.602;10.980;2022-11-02T08:51:43;11.80;99.90
10968;DHT22;5536;49.602;10.980;2022-11-02T08:54:10;11.90;99.90
10968;DHT22;5536;49.602;10.980;2022-11-02T08:56:38;11.90;99.90
10968;DHT22;5536;49.602;10.980;2022-11-02T08:59:05;12.00;99.90
10968;DHT22;5536;49.602;10.980;2022-11-02T09:01:32;12.00;99.90
10968;DHT22;5536;49.602;10.980;2022-11-02T09:04:00;12.00;99.90
10968;DHT22;5536;49.602;10.980;2022-11-02T09:06:27;12.00;99.90
10968;DHT22;5536;49.602;10.980;2022-11-02T09:08:54;12.10;99.90
10968;DHT22;5536;49.602;10.980;2022-11-02T09:11:21;12.10;99.90
10968;DHT22;5536;49.602;10.980;2022-11-02T09:13:48;12.10;99.90
10968;DHT22;5536;49.602;10.980;2022-11-02T09:16:15;12.20;99.90
10968;DHT22;5536;49.602;10.980;2022-11-02T09:18:42;12.20;99.90
10968;DHT22;5536;49.602;10.980;2022-11-02T09:21:10;12.20;99.90
10968;DHT22;5536;49.602;10.980;2022-11-02T09:23:37;12.20;99.90
10968;DHT22;5536;49.602;10.980;2022-11-02T09:26:04;12.30;99.90
10968;DHT22;5536;49.602;10.980;2022-11-02T09:28:31;12.60;99.90
10968;DHT22;5536;49.602;10.980;2022-11-02T09:30:58;12.80;99.90
10968;DHT22;5536;49.602;10.980;2022-11-02T09:33:25;12.90;99.90
10968;DHT22;5536;49.602;10.980;2022-11-02T09:35:54;13.00;99.90
10968;DHT22;5536;49.602;10.980;2022-11-02T09:38:22;13.00;99.90
10968;DHT22;5536;49.602;10.980;2022-11-02T09:40:53;13.20;99.90
10968;DHT22;5536;49.602;10.980;2022-11-02T09:43:37;13.30;99.90
10968;DHT22;5536;49.602;10.980;2022-11-02T09:46:08;13.40;99.90
10968;DHT22;5536;49.602;10.980;2022-11-02T09:48:39;13.40;99.90
10968;DHT22;5536;49.602;10.980;2022-11-02T09:51:09;13.50;99.90
10968;DHT22;5536;49.602;10.980;2022-11-02T09:53:48;13.50;99.90
10968;DHT22;5536;49.602;10.980;2022-11-02T09:56:17;13.50;99.90
10968;DHT22;5536;49.602;10.980;2022-11-02T09:58:49;13.50;99.90
10968;DHT22;5536;49.602;10.980;2022-11-02T10:04:45;13.60;99.90
10968;DHT22;5536;49.602;10.980;2022-11-02T10:07:21;13.70;99.90
10968;DHT22;5536;49.602;10.980;2022-11-02T10:09:53;13.80;99.90
10968;DHT22;5536;49.602;10.980;2022-11-02T10:12:25;13.70;99.90
10968;DHT22;5536;49.602;10.980;2022-11-02T10:15:00;13.80;99.90
10968;DHT22;5536;49.602;10.980;2022-11-02T10:17:31;13.70;99.90
10968;DHT22;5536;49.602;10.980;2022-11-02T10:20:04;13.70;99.90
10968;DHT22;5536;49.602;10.980;2022-11-02T10:22:36;13.60;99.90
10968;DHT22;5536;49.602;10.980;2022-11-02T10:25:11;13.60;99.90
10968;DHT22;5536;49.602;10.980;2022-11-02T10:27:42;13.50;99.90
10968;DHT22;5536;49.602;10.980;2022-11-02T10:30:18;13.60;99.90
10968;DHT22;5536;49.602;10.980;2022-11-02T10:32:50;13.60;99.90
10968;DHT22;5536;49.602;10.980;2022-11-02T10:35:22;13.60;99.90
10968;DHT22;5536;49.602;10.980;2022-11-02T10:38:02;13.50;99.90
10968;DHT22;5536;49.602;10.980;2022-11-02T10:40:47;13.50;99.90
10968;DHT22;5536;49.602;10.980;2022-11-02T10:43:30;13.50;99.90
10968;DHT22;5536;49.602;10.980;2022-11-02T10:49:09;13.70;99.90
10968;DHT22;5536;49.602;10.980;2022-11-02T10:51:39;13.60;99.90
10968;DHT22;5536;49.602;10.980;2022-11-02T10:54:11;13.70;99.90
10968;DHT22;5536;49.602;10.980;2022-11-02T10:56:41;13.70;99.90
10968;DHT22;5536;49.602;10.980;2022-11-02T10:59:13;13.70;99.90
10968;DHT22;5536;49.602;10.980;2022-11-02T11:01:45;13.70;99.90
10968;DHT22;5536;49.602;10.980;2022-11-02T11:04:20;13.70;99.90
10968;DHT22;5536;49.602;10.980;2022-11-02T11:06:47;13.70;99.90
10968;DHT22;5536;49.602;10.980;2022-11-02T11:09:15;13.80;99.90
10968;DHT22;5536;49.602;10.980;2022-11-02T11:11:53;13.80;99.90
10968;DHT22;5536;49.602;10.980;2022-11-02T11:14:22;13.90;99.90
10968;DHT22;5536;49.602;10.980;2022-11-02T11:16:52;14.00;99.90
10968;DHT22;5536;49.602;10.980;2022-11-02T11:19:26;14.40;99.90
10968;DHT22;5536;49.602;10.980;2022-11-02T11:21:55;14.60;99.90
10968;DHT22;5536;49.602;10.980;2022-11-02T11:24:25;14.70;99.90
10968;DHT22;5536;49.602;10.980;2022-11-02T11:27:16;14.60;99.90
10968;DHT22;5536;49.602;10.980;2022-11-02T11:29:49;14.60;97.60
10968;DHT22;5536;49.602;10.980;2022-11-02T11:32:19;14.40;98.30
10968;DHT22;5536;49.602;10.980;2022-11-02T11:34:53;14.40;99.90
10968;DHT22;5536;49.602;10.980;2022-11-02T11:37:22;14.60;95.70
10968;DHT22;5536;49.602;10.980;2022-11-02T11:39:52;14.50;3.90
10968;DHT22;5536;49.602;10.980;2022-11-02T11:42:23;14.50;40.40
10968;DHT22;5536;49.602;10.980;2022-11-02T11:44:56;14.50;40.50
10968;DHT22;5536;49.602;10.980;2022-11-02T11:47:26;14.40;67.30
10968;DHT22;5536;49.602;10.980;2022-11-02T11:49:54;14.30;99.90
10968;DHT22;5536;49.602;10.980;2022-11-02T11:52:26;14.20;76.40
10968;DHT22;5536;49.602;10.980;2022-11-02T11:54:55;14.20;43.40
10968;DHT22;5536;49.602;10.980;2022-11-02T11:57:26;14.30;94.40
10968;DHT22;5536;49.602;10.980;2022-11-02T11:59:55;14.40;99.90
10968;DHT22;5536;49.602;10.980;2022-11-02T12:02:26;15.10;99.90
10968;DHT22;5536;49.602;10.980;2022-11-02T12:05:00;15.60;99.90
10968;DHT22;5536;49.602;10.980;2022-11-02T12:08:07;16.10;99.90
10968;DHT22;5536;49.602;10.980;2022-11-02T12:10:49;17.00;99.90
10968;DHT22;5536;49.602;10.980;2022-11-02T12:13:28;17.10;94.40
10968;DHT22;5536;49.602;10.980;2022-11-02T12:16:10;17.30;90.50
10968;DHT22;5536;49.602;10.980;2022-11-02T12:18:50;17.50;89.00
10968;DHT22;5536;49.602;10.980;2022-11-02T12:21:39;17.50;85.50
10968;DHT22;5536;49.602;10.980;2022-11-02T12:24:22;17.20;84.60
10968;DHT22;5536;49.602;10.980;2022-11-02T12:27:06;17.20;83.90
10968;DHT22;5536;49.602;10.980;2022-11-02T12:30:01;16.70;83.50
10968;DHT22;5536;49.602;10.980;2022-11-02T12:32:46;16.20;85.30
10968;DHT22;5536;49.602;10.980;2022-11-02T12:35:31;16.00;89.30
10968;DHT22;5536;49.602;10.980;2022-11-02T12:38:12;15.60;89.20
10968;DHT22;5536;49.602;10.980;2022-11-02T12:40:51;15.10;92.40
10968;DHT22;5536;49.602;10.980;2022-11-02T12:43:37;15.00;94.80
10968;DHT22;5536;49.602;10.980;2022-11-02T12:46:14;15.70;93.00
10968;DHT22;5536;49.602;10.980;2022-11-02T12:48:52;16.70;90.90
10968;DHT22;5536;49.602;10.980;2022-11-02T12:51:26;17.60;86.20
10968;DHT22;5536;49.602;10.980;2022-11-02T12:53:57;18.10;79.00
10968;DHT22;5536;49.602;10.980;2022-11-02T12:56:29;18.60;71.80
10968;DHT22;5536;49.602;10.980;2022-11-02T12:58:58;18.00;66.70
10968;DHT22;5536;49.602;10.980;2022-11-02T13:01:29;17.10;69.50
10968;DHT22;5536;49.602;10.980;2022-11-02T13:04:02;17.30;70.30
10968;DHT22;5536;49.602;10.980;2022-11-02T13:06:38;17.40;70.10
10968;DHT22;5536;49.602;10.980;2022-11-02T13:09:10;17.30;69.10
10968;DHT22;5536;49.602;10.980;2022-11-02T13:11:40;17.50;76.30
10968;DHT22;5536;49.602;10.980;2022-11-02T13:14:11;18.20;65.10
10968;DHT22;5536;49.602;10.980;2022-11-02T13:16:45;18.30;61.40
10968;DHT22;5536;49.602;10.980;2022-11-02T13:19:17;18.40;62.10
10968;DHT22;5536;49.602;10.980;2022-11-02T13:21:48;18.60;58.90
10968;DHT22;5536;49.602;10.980;2022-11-02T13:24:31;18.80;57.70
10968;DHT22;5536;49.602;10.980;2022-11-02T13:27:02;18.60;58.80
10968;DHT22;5536;49.602;10.980;2022-11-02T13:29:36;18.30;59.60
10968;DHT22;5536;49.602;10.980;2022-11-02T13:32:09;18.00;58.70
10968;DHT22;5536;49.602;10.980;2022-11-02T13:34:43;17.50;59.20
10968;DHT22;5536;49.602;10.980;2022-11-02T13:37:15;17.40;62.50
10968;DHT22;5536;49.602;10.980;2022-11-02T13:39:45;17.40;59.60
10968;DHT22;5536;49.602;10.980;2022-11-02T13:42:42;17.20;60.40
10968;DHT22;5536;49.602;10.980;2022-11-02T13:45:37;16.50;64.60
10968;DHT22;5536;49.602;10.980;2022-11-02T13:48:32;16.10;68.70
10968;DHT22;5536;49.602;10.980;2022-11-02T13:51:05;15.50;74.40
10968;DHT22;5536;49.602;10.980;2022-11-02T13:53:37;15.30;78.00
10968;DHT22;5536;49.602;10.980;2022-11-02T13:56:08;15.20;77.40
10968;DHT22;5536;49.602;10.980;2022-11-02T13:58:39;15.10;78.80
10968;DHT22;5536;49.602;10.980;2022-11-02T14:01:10;14.90;78.90
10968;DHT22;5536;49.602;10.980;2022-11-02T14:03:48;14.90;79.70
10968;DHT22;5536;49.602;10.980;2022-11-02T14:06:17;14.80;77.40
10968;DHT22;5536;49.602;10.980;2022-11-02T14:08:50;14.70;79.20
10968;DHT22;5536;49.602;10.980;2022-11-02T14:11:34;14.50;82.00
10968;DHT22;5536;49.602;10.980;2022-11-02T14:14:13;14.40;81.90
10968;DHT22;5536;49.602;10.980;2022-11-02T14:16:45;14.50;82.10
10968;DHT22;5536;49.602;10.980;2022-11-02T14:19:20;14.40;82.00
10968;DHT22;5536;49.602;10.980;2022-11-02T14:22:12;14.40;84.10
10968;DHT22;5536;49.602;10.980;2022-11-02T14:27:53;14.30;87.90
10968;DHT22;5536;49.602;10.980;2022-11-02T14:30:42;14.30;89.30
10968;DHT22;5536;49.602;10.980;2022-11-02T14:33:43;14.20;90.60
10968;DHT22;5536;49.602;10.980;2022-11-02T14:36:29;14.20;90.90
10968;DHT22;5536;49.602;10.980;2022-11-02T14:39:08;14.10;93.00
10968;DHT22;5536;49.602;10.980;2022-11-02T14:41:53;14.00;94.90
10968;DHT22;5536;49.602;10.980;2022-11-02T14:44:37;14.00;94.00
10968;DHT22;5536;49.602;10.980;2022-11-02T14:47:06;14.10;93.80
10968;DHT22;5536;49.602;10.980;2022-11-02T14:49:37;14.10;93.80
10968;DHT22;5536;49.602;10.980;2022-11-02T14:52:19;14.00;94.40
10968;DHT22;5536;49.602;10.980;2022-11-02T14:54:51;14.00;95.50
10968;DHT22;5536;49.602;10.980;2022-11-02T14:57:23;13.90;97.40
10968;DHT22;5536;49.602;10.980;2022-11-02T14:59:54;13.80;98.30
10968;DHT22;5536;49.602;10.980;2022-11-02T15:02:26;13.80;98.50
10968;DHT22;5536;49.602;10.980;2022-11-02T15:04:56;13.70;99.80
10968;DHT22;5536;49.602;10.980;2022-11-02T15:07:31;13.60;99.90
10968;DHT22;5536;49.602;10.980;2022-11-02T15:10:01;13.50;99.90
10968;DHT22;5536;49.602;10.980;2022-11-02T15:12:32;13.50;99.90
10968;DHT22;5536;49.602;10.980;2022-11-02T15:15:30;13.40;99.90
10968;DHT22;5536;49.602;10.980;2022-11-02T15:20:40;13.10;99.90
10968;DHT22;5536;49.602;10.980;2022-11-02T15:23:18;13.00;99.90
10968;DHT22;5536;49.602;10.980;2022-11-02T15:25:49;12.80;99.90
10968;DHT22;5536;49.602;10.980;2022-11-02T15:28:19;12.70;99.90
10968;DHT22;5536;49.602;10.980;2022-11-02T15:30:49;12.60;99.90
10968;DHT22;5536;49.602;10.980;2022-11-02T15:33:24;12.50;99.90
10968;DHT22;5536;49.602;10.980;2022-11-02T15:35:54;12.40;99.90
10968;DHT22;5536;49.602;10.980;2022-11-02T15:38:26;12.30;99.90
10968;DHT22;5536;49.602;10.980;2022-11-02T15:41:00;12.20;99.90
10968;DHT22;5536;49.602;10.980;2022-11-02T15:43:46;12.20;99.90
10968;DHT22;5536;49.602;10.980;2022-11-02T15:46:27;12.10;99.90
10968;DHT22;5536;49.602;10.980;2022-11-02T15:49:05;12.00;99.90
10968;DHT22;5536;49.602;10.980;2022-11-02T15:51:40;11.80;99.90
10968;DHT22;5536;49.602;10.980;2022-11-02T15:54:22;11.80;99.90
10968;DHT22;5536;49.602;10.980;2022-11-02T15:57:00;11.70;99.90
10968;DHT22;5536;49.602;10.980;2022-11-02T15:59:50;11.60;99.90
10968;DHT22;5536;49.602;10.980;2022-11-02T16:02:24;11.60;99.90
10968;DHT22;5536;49.602;10.980;2022-11-02T16:04:53;11.50;99.90
10968;DHT22;5536;49.602;10.980;2022-11-02T16:07:21;11.40;99.90
10968;DHT22;5536;49.602;10.980;2022-11-02T16:09:50;11.40;99.90
10968;DHT22;5536;49.602;10.980;2022-11-02T16:12:18;11.30;99.90
10968;DHT22;5536;49.602;10.980;2022-11-02T16:14:52;11.30;99.90
10968;DHT22;5536;49.602;10.980;2022-11-02T16:17:22;11.20;99.90